Time;durP1;ratioP1;P1;durP2;ratioP2;P2;SDS_P1;SDS_P2;PMS_P1;PMS_P2;Temp;Humidity;BMP_temperature;BMP_pressure;BME280_temperature;BME280_humidity;BME280_pressure;Samples;Min_cycle;Max_cycle;Signal;HPM_P1;HPM_P2
2022/05/19 00:02:16;;;;;;;1.90;1.70;;;;;;;22.99;34.55;102155.53;4947072;28;20062;-79
2022/05/19 00:04:43;;;;;;;4.28;2.03;;;;;;;22.98;35.85;102148.41;4972904;28;20043;-78
2022/05/19 00:07:11;;;;;;;8.80;2.17;;;;;;;22.97;35.59;102152.13;4954180;28;20046;-79
2022/05/19 00:09:40;;;;;;;4.05;1.88;;;;;;;22.71;34.84;102115.41;4953195;28;20307;-78
2022/05/19 00:12:17;;;;;;;4.53;1.88;;;;;;;22.95;34.92;102148.75;4953197;28;20408;-80
2022/05/19 00:14:44;;;;;;;1.95;1.55;;;;;;;22.19;35.53;102029.47;4953260;28;20402;-78
2022/05/19 00:17:10;;;;;;;4.13;1.75;;;;;;;22.94;35.08;102152.50;4954101;28;20076;-81
2022/05/19 00:19:37;;;;;;;4.45;1.73;;;;;;;22.94;35.53;102153.31;4952417;28;20408;-81
2022/05/19 00:22:05;;;;;;;4.32;1.95;;;;;;;22.95;35.30;102151.44;4970712;28;20046;-79
2022/05/19 00:24:32;;;;;;;2.50;1.80;;;;;;;22.32;35.47;102058.69;4954680;28;20179;-80
2022/05/19 00:26:59;;;;;;;2.30;1.80;;;;;;;22.38;35.45;102071.50;4952149;28;20117;-80
2022/05/19 00:29:26;;;;;;;4.80;2.10;;;;;;;22.54;35.84;102125.50;4969031;28;20050;-79
2022/05/19 00:31:53;;;;;;;3.88;1.83;;;;;;;22.70;35.89;102154.34;4967654;28;20473;-80
2022/05/19 00:34:20;;;;;;;4.07;1.80;;;;;;;22.75;36.28;102160.06;4967790;28;20139;-80
2022/05/19 00:36:46;;;;;;;3.50;1.75;;;;;;;22.48;36.19;102122.69;4951755;28;20055;-80
2022/05/19 00:39:13;;;;;;;6.63;2.47;;;;;;;22.64;36.12;102157.75;4968830;28;20049;-79
2022/05/19 00:41:45;;;;;;;4.03;2.15;;;;;;;22.64;36.36;102173.97;4950804;28;20071;-79
2022/05/19 00:44:13;;;;;;;1.95;1.75;;;;;;;22.63;36.36;102176.88;4968139;28;20105;-79
2022/05/19 00:46:54;;;;;;;2.60;1.85;;;;;;;22.52;36.42;102160.00;4966751;28;20074;-80
2022/05/19 00:49:35;;;;;;;7.30;2.10;;;;;;;22.56;36.78;102165.91;4950946;28;20114;-80
2022/05/19 00:52:10;;;;;;;4.47;2.10;;;;;;;22.42;37.32;102147.72;4966787;28;20042;-80
2022/05/19 00:54:43;;;;;;;2.47;1.83;;;;;;;22.35;37.13;102142.19;4968460;28;20342;-79
2022/05/19 00:57:33;;;;;;;3.00;1.48;;;;;;;22.33;37.50;102145.06;4951017;28;20245;-80
2022/05/19 01:00:06;;;;;;;2.95;1.70;;;;;;;22.44;37.44;102168.19;4950820;28;20202;-81
2022/05/19 01:02:37;;;;;;;5.10;2.03;;;;;;;22.13;37.58;102128.38;4950486;28;20058;-80
2022/05/19 01:05:06;;;;;;;2.10;1.90;;;;;;;22.37;37.90;102168.03;4950198;28;20531;-79
2022/05/19 01:07:52;;;;;;;8.18;2.05;;;;;;;22.26;37.84;102154.91;4950118;28;20137;-79
2022/05/19 01:10:19;;;;;;;3.58;1.70;;;;;;;21.96;38.08;102119.47;4967723;28;20058;-79
2022/05/19 01:12:49;;;;;;;3.08;1.95;;;;;;;22.25;38.89;102163.19;4950250;28;20057;-79
2022/05/19 01:15:16;;;;;;;2.80;1.65;;;;;;;22.14;38.77;102154.41;4950057;28;20043;-79
2022/05/19 01:17:44;;;;;;;3.30;1.60;;;;;;;22.22;39.21;102167.09;4949929;28;20054;-79
2022/05/19 01:20:16;;;;;;;2.85;2.10;;;;;;;22.15;39.12;102157.97;4950139;28;20054;-78
2022/05/19 01:22:55;;;;;;;6.22;1.92;;;;;;;22.33;38.63;102185.66;4951188;28;20053;-79
2022/05/19 01:25:45;;;;;;;7.50;2.28;;;;;;;22.13;38.88;102160.00;4954060;28;20082;-79
2022/05/19 01:28:13;;;;;;;2.90;2.00;;;;;;;22.22;38.82;102177.91;4950423;28;20117;-81
2022/05/19 01:30:40;;;;;;;4.03;1.60;;;;;;;22.10;39.49;102165.75;4967672;28;20074;-79
2022/05/19 01:33:07;;;;;;;8.73;1.80;;;;;;;21.79;39.58;102135.94;4950100;28;20057;-79
2022/05/19 01:35:34;;;;;;;8.23;2.13;;;;;;;21.79;40.02;102147.59;4950255;28;20054;-78
2022/05/19 01:38:06;;;;;;;7.18;2.50;;;;;;;21.88;39.77;102180.88;4949921;28;20539;-79
2022/05/19 01:40:32;;;;;;;2.97;1.65;;;;;;;20.75;40.21;102000.69;4950136;28;20101;-79
2022/05/19 01:43:18;;;;;;;2.40;1.83;;;;;;;21.84;40.56;102191.16;4948302;28;20606;-79
2022/05/19 01:46:09;;;;;;;2.22;2.03;;;;;;;21.79;40.29;102193.53;4950650;29;20051;-80
2022/05/19 01:48:42;;;;;;;2.67;1.73;;;;;;;21.34;40.23;102116.59;4950028;28;20053;-80
2022/05/19 01:51:41;;;;;;;4.30;2.10;;;;;;;20.91;40.44;102048.44;4951061;29;20488;-80
2022/05/19 01:54:17;;;;;;;5.82;2.00;;;;;;;21.79;40.51;102193.53;4933310;29;20051;-80
2022/05/19 01:56:55;;;;;;;4.50;1.83;;;;;;;21.73;40.91;102180.75;4933885;29;20382;-79
2022/05/19 01:59:28;;;;;;;2.03;1.70;;;;;;;21.67;40.98;102198.47;4934466;29;20114;-81
2022/05/19 02:02:03;;;;;;;1.75;1.50;;;;;;;21.54;41.17;102187.34;4951369;29;20430;-80
2022/05/19 02:04:59;;;;;;;8.98;2.92;;;;;;;21.39;41.55;102168.28;4950887;28;20065;-80
2022/05/19 02:07:27;;;;;;;4.32;2.13;;;;;;;21.51;41.86;102183.13;4934872;29;20055;-78
2022/05/19 02:10:05;;;;;;;5.63;2.42;;;;;;;21.45;41.67;102175.69;4951683;29;20043;-79
2022/05/19 02:12:33;;;;;;;3.55;2.10;;;;;;;20.96;41.72;102100.06;4950990;29;20129;-79
2022/05/19 02:15:06;;;;;;;2.30;2.05;;;;;;;21.24;41.68;102132.09;4935539;29;20059;-79
2022/05/19 02:17:35;;;;;;;7.20;2.60;;;;;;;21.37;41.53;102161.31;4950316;28;20062;-80
2022/05/19 02:20:09;;;;;;;2.88;2.03;;;;;;;21.27;41.50;102143.44;4941335;29;20047;-78
2022/05/19 02:22:39;;;;;;;7.72;2.72;;;;;;;21.25;41.93;102125.72;4934842;29;20401;-80
2022/05/19 02:25:19;;;;;;;7.07;2.47;;;;;;;21.38;41.97;102155.75;4950050;28;20393;-80
2022/05/19 02:27:55;;;;;;;5.10;2.15;;;;;;;21.40;42.11;102163.72;4934727;29;20059;-78
2022/05/19 02:30:28;;;;;;;4.28;2.08;;;;;;;21.12;42.08;102110.88;4933903;29;20047;-79
2022/05/19 02:32:56;;;;;;;3.20;2.00;;;;;;;20.69;42.24;102042.69;4950930;29;20063;-80
2022/05/19 02:35:23;;;;;;;3.78;2.45;;;;;;;21.37;43.28;102145.97;4952021;28;20059;-79
2022/05/19 02:37:51;;;;;;;3.85;2.08;;;;;;;21.41;43.43;102124.88;4950916;28;20059;-80
2022/05/19 02:40:20;;;;;;;2.22;1.80;;;;;;;21.66;42.38;102158.13;4936228;29;20180;-79
2022/05/19 02:42:47;;;;;;;6.45;1.88;;;;;;;21.65;42.31;102156.41;4951371;28;20497;-81
2022/05/19 02:45:16;;;;;;;4.35;2.10;;;;;;;21.76;41.99;102164.16;4934828;29;20134;-80
2022/05/19 02:47:43;;;;;;;6.40;2.00;;;;;;;21.85;42.50;102160.44;4933998;29;20469;-81
2022/05/19 02:50:11;;;;;;;6.70;2.25;;;;;;;21.55;42.36;102130.44;4949595;28;20386;-79
2022/05/19 02:52:42;;;;;;;3.15;2.10;;;;;;;21.65;42.13;102168.09;4958228;28;20053;-80
2022/05/19 02:55:10;;;;;;;4.93;2.35;;;;;;;21.44;42.37;102144.28;4951637;28;20042;-79
2022/05/19 02:57:36;;;;;;;5.43;2.03;;;;;;;21.29;42.24;102141.41;4969711;28;20055;-80
2022/05/19 03:00:06;;;;;;;3.70;2.00;;;;;;;21.38;42.43;102166.53;4952649;28;20057;-80
2022/05/19 03:02:32;;;;;;;2.45;2.00;;;;;;;20.99;42.61;102118.63;4952116;28;20067;-79
2022/05/19 03:04:59;;;;;;;5.25;2.03;;;;;;;21.26;42.46;102178.69;4952238;28;20067;-80
2022/05/19 03:07:26;;;;;;;5.68;2.28;;;;;;;21.21;43.28;102181.91;4952008;28;20337;-79
2022/05/19 03:09:53;;;;;;;5.40;2.28;;;;;;;20.39;43.33;102063.06;4952053;28;20493;-80
2022/05/19 03:12:19;;;;;;;4.50;2.08;;;;;;;20.96;43.77;102177.50;4951935;28;20524;-80
2022/05/19 03:14:46;;;;;;;7.22;2.08;;;;;;;20.39;44.10;102106.22;4969248;28;20042;-80
2022/05/19 03:17:13;;;;;;;6.13;2.10;;;;;;;20.74;44.01;102179.00;4952098;28;20417;-79
2022/05/19 03:19:40;;;;;;;4.93;2.30;;;;;;;20.77;44.40;102192.16;4952644;28;20051;-80
2022/05/19 03:22:07;;;;;;;3.55;1.88;;;;;;;20.42;44.74;102145.50;4952089;28;20050;-80
2022/05/19 03:24:34;;;;;;;4.25;2.00;;;;;;;20.63;44.76;102183.69;4952050;28;20047;-80
2022/05/19 03:27:00;;;;;;;5.45;2.67;;;;;;;20.50;45.11;102161.69;4952136;28;20082;-79
2022/05/19 03:29:27;;;;;;;6.25;2.38;;;;;;;20.58;45.39;102190.56;4951854;28;20126;-79
2022/05/19 03:31:59;;;;;;;3.17;2.30;;;;;;;20.06;45.31;102107.94;4969143;28;20055;-79
2022/05/19 03:34:26;;;;;;;4.90;2.30;;;;;;;20.54;45.13;102173.84;4951719;28;20046;-79
2022/05/19 03:36:53;;;;;;;3.63;2.33;;;;;;;20.68;45.37;102189.44;4968860;28;20079;-79
2022/05/19 03:39:21;;;;;;;4.50;2.47;;;;;;;20.70;44.91;102187.44;4951595;28;20186;-79
2022/05/19 03:41:48;;;;;;;4.53;2.45;;;;;;;20.39;44.86;102129.59;4951994;28;20559;-78
2022/05/19 03:44:14;;;;;;;2.20;2.00;;;;;;;20.01;44.97;102078.78;4948356;29;20078;-80
2022/05/19 03:46:41;;;;;;;5.57;2.58;;;;;;;20.75;44.76;102192.28;4948759;28;20051;-78
2022/05/19 03:49:09;;;;;;;3.97;2.40;;;;;;;20.59;45.05;102181.47;4948265;29;20051;-79
2022/05/19 03:51:36;;;;;;;3.38;2.13;;;;;;;20.62;45.19;102191.94;4932557;29;20373;-79
2022/05/19 03:54:02;;;;;;;5.88;2.35;;;;;;;20.06;45.47;102116.88;4968060;28;20263;-79
2022/05/19 03:56:33;;;;;;;3.30;2.72;;;;;;;20.27;45.59;102159.59;4951543;28;20152;-78
2022/05/19 03:59:00;;;;;;;5.75;2.75;;;;;;;20.17;45.64;102142.72;4951365;28;20054;-79
2022/05/19 04:01:27;;;;;;;3.00;2.30;;;;;;;20.26;46.37;102182.16;4951531;28;20051;-80
2022/05/19 04:03:54;;;;;;;4.55;2.42;;;;;;;19.96;46.71;102129.63;4951560;28;20065;-80
2022/05/19 04:06:23;;;;;;;5.82;2.42;;;;;;;20.46;46.41;102212.44;4951961;28;20299;-79
2022/05/19 04:08:50;;;;;;;7.78;2.72;;;;;;;20.34;46.21;102196.69;4968511;28;20047;-77
2022/05/19 04:11:16;;;;;;;11.82;2.95;;;;;;;20.04;46.45;102166.56;4968578;28;20448;-79
2022/05/19 04:13:43;;;;;;;7.55;3.22;;;;;;;20.39;46.32;102218.63;4951537;28;20047;-79
2022/05/19 04:16:10;;;;;;;10.32;3.03;;;;;;;20.33;46.85;102224.66;4950531;28;20637;-79
2022/05/19 04:18:38;;;;;;;9.93;3.33;;;;;;;20.24;46.80;102221.94;4950308;28;20134;-79
2022/05/19 04:21:05;;;;;;;4.95;3.05;;;;;;;20.28;47.08;102234.09;4967628;28;20480;-79
2022/05/19 04:23:32;;;;;;;6.57;3.45;;;;;;;20.06;47.21;102197.75;4951687;28;20051;-79
2022/05/19 04:25:59;;;;;;;7.32;3.20;;;;;;;20.28;47.20;102230.53;4951451;28;20051;-80
2022/05/19 04:28:26;;;;;;;8.73;3.58;;;;;;;20.11;47.45;102215.28;4950130;28;20055;-79
2022/05/19 04:30:52;;;;;;;6.00;3.75;;;;;;;20.14;47.82;102214.97;4949612;28;20055;-79
2022/05/19 04:33:19;;;;;;;6.70;3.20;;;;;;;20.23;47.88;102231.03;4954021;28;20133;-79
2022/05/19 04:35:46;;;;;;;7.72;2.58;;;;;;;20.18;47.66;102232.53;4952871;28;20051;-80
2022/05/19 04:38:16;;;;;;;6.40;3.40;;;;;;;20.24;47.48;102216.56;4951128;28;20051;-79
2022/05/19 04:40:47;;;;;;;8.38;3.50;;;;;;;20.26;47.85;102235.25;4967682;28;20047;-80
2022/05/19 04:43:22;;;;;;;7.75;3.70;;;;;;;20.28;48.32;102244.88;4947981;29;20039;-80
2022/05/19 04:45:51;;;;;;;8.65;3.40;;;;;;;20.19;48.23;102248.53;4947545;29;20126;-79
2022/05/19 04:48:19;;;;;;;7.05;3.67;;;;;;;19.93;48.25;102224.28;4930915;29;20051;-80
2022/05/19 04:50:49;;;;;;;6.90;3.10;;;;;;;19.86;48.17;102201.66;4948095;29;20481;-78
2022/05/19 04:53:16;;;;;;;9.68;3.63;;;;;;;20.15;48.76;102255.25;4959193;28;20054;-80
2022/05/19 04:55:42;;;;;;;8.77;3.88;;;;;;;20.23;48.90;102255.28;4950321;28;20179;-79
2022/05/19 04:58:09;;;;;;;8.15;3.55;;;;;;;20.21;48.32;102253.75;4935466;28;20190;-79
2022/05/19 05:00:36;;;;;;;11.68;4.15;;;;;;;20.17;48.41;102230.81;4953475;28;20050;-79
2022/05/19 05:03:06;;;;;;;7.10;3.80;;;;;;;20.35;48.72;102265.81;4957688;28;20071;-79
2022/05/19 05:05:34;;;;;;;23.00;12.00;;;;;;;20.36;48.75;102264.78;4958423;28;20144;-78
2022/05/19 05:08:01;;;;;;;8.15;4.35;;;;;;;20.38;48.72;102262.78;4967243;28;20039;-79
2022/05/19 05:10:28;;;;;;;10.73;3.92;;;;;;;20.13;48.74;102219.53;4986524;28;20084;-81
2022/05/19 05:12:55;;;;;;;6.30;3.58;;;;;;;20.59;48.55;102279.44;4970970;28;20051;-80
2022/05/19 05:15:22;;;;;;;4.88;3.50;;;;;;;20.64;48.45;102282.50;4964467;28;20547;-80
2022/05/19 05:17:49;;;;;;;5.32;3.80;;;;;;;20.68;48.59;102289.28;4951791;28;20089;-80
2022/05/19 05:20:16;;;;;;;7.00;3.20;;;;;;;20.72;47.89;102295.19;4954473;28;20051;-79
2022/05/19 05:22:42;;;;;;;6.32;3.65;;;;;;;20.74;47.89;102297.72;4954064;28;20580;-80
2022/05/19 05:25:12;;;;;;;9.80;3.28;;;;;;;20.52;48.24;102261.34;4952813;28;20059;-80
2022/05/19 05:27:39;;;;;;;9.43;3.63;;;;;;;20.58;47.91;102258.84;4970458;28;20069;-80
2022/05/19 05:30:07;;;;;;;8.48;3.75;;;;;;;20.74;47.97;102286.94;4969996;28;20650;-80
2022/05/19 05:32:34;;;;;;;10.88;3.40;;;;;;;20.43;47.70;102241.56;4970178;28;20055;-80
2022/05/19 05:35:02;;;;;;;10.68;3.95;;;;;;;20.55;48.27;102256.50;4952573;28;20058;-80
2022/05/19 05:37:29;;;;;;;10.48;3.40;;;;;;;20.82;47.96;102289.66;4952474;28;20043;-80
2022/05/19 05:39:56;;;;;;;7.20;3.30;;;;;;;21.01;47.42;102302.03;4952885;28;20105;-80
2022/05/19 05:42:23;;;;;;;11.63;3.38;;;;;;;20.82;47.60;102241.91;4952716;28;20078;-80
2022/05/19 05:44:49;;;;;;;5.30;3.08;;;;;;;21.17;47.36;102298.56;4953270;28;20054;-79
2022/05/19 05:47:17;;;;;;;3.50;2.72;;;;;;;21.11;47.58;102273.88;4968361;28;20101;-81
2022/05/19 05:49:43;;;;;;;5.28;3.38;;;;;;;21.20;47.23;102287.41;4952023;28;20054;-80
2022/05/19 05:52:10;;;;;;;5.28;3.30;;;;;;;21.15;47.04;102268.16;4952059;28;20061;-79
2022/05/19 05:54:37;;;;;;;11.05;3.28;;;;;;;21.42;46.94;102307.56;4968614;28;20481;-80
2022/05/19 05:57:04;;;;;;;9.73;3.50;;;;;;;21.29;46.93;102286.44;4954512;28;20051;-79
2022/05/19 05:59:35;;;;;;;3.92;2.83;;;;;;;21.03;46.76;102238.78;4974460;28;20079;-80
2022/05/19 06:02:02;;;;;;;7.28;2.67;;;;;;;21.31;46.45;102268.16;4943924;28;20191;-79
2022/05/19 06:04:29;;;;;;;6.50;2.90;;;;;;;21.61;46.22;102309.13;4930373;29;20047;-80
2022/05/19 06:06:56;;;;;;;6.85;3.05;;;;;;;21.34;45.51;102267.84;4932379;29;20051;-80
2022/05/19 06:09:23;;;;;;;6.47;3.17;;;;;;;21.67;45.34;102305.72;4930659;29;20078;-80
2022/05/19 06:11:51;;;;;;;7.20;2.97;;;;;;;21.73;45.57;102310.47;4930843;29;20055;-80
2022/05/19 06:14:18;;;;;;;5.47;3.00;;;;;;;21.79;45.04;102307.06;4931716;29;20114;-80
2022/05/19 06:16:44;;;;;;;6.70;2.55;;;;;;;21.61;44.56;102255.06;4930627;29;20114;-81
2022/05/19 06:19:11;;;;;;;6.85;2.60;;;;;;;22.05;44.55;102314.19;4930649;29;20044;-80
2022/05/19 06:21:39;;;;;;;9.05;2.88;;;;;;;21.95;44.78;102288.16;4930410;29;20114;-80
2022/05/19 06:24:09;;;;;;;7.88;3.40;;;;;;;22.14;44.53;102323.97;4931004;29;20056;-80
2022/05/19 06:26:37;;;;;;;8.45;3.00;;;;;;;21.94;45.11;102275.66;4932040;29;20052;-79
2022/05/19 06:29:04;;;;;;;4.13;2.60;;;;;;;22.34;45.53;102298.25;4929769;29;20055;-81
2022/05/19 06:31:31;;;;;;;6.35;2.95;;;;;;;22.32;45.09;102284.06;4929718;29;20052;-79
2022/05/19 06:33:59;;;;;;;7.57;2.65;;;;;;;22.68;45.29;102310.66;4930071;29;20629;-79
2022/05/19 06:36:26;;;;;;;7.63;3.47;;;;;;;22.60;44.54;102324.25;4930189;29;20119;-82
2022/05/19 06:38:53;;;;;;;5.97;2.67;;;;;;;22.48;45.12;102304.81;4930190;29;20665;-80
2022/05/19 06:44:05;;;;;;;8.60;3.33;;;;;;;22.03;45.05;102230.50;4933077;29;20052;-80
2022/05/19 06:46:33;;;;;;;6.10;3.17;;;;;;;22.26;44.83;102246.88;4935048;29;20494;-79
2022/05/19 06:49:02;;;;;;;10.90;3.47;;;;;;;22.68;44.95;102312.53;4934611;29;20164;-81
2022/05/19 06:51:29;;;;;;;9.38;3.72;;;;;;;22.21;44.51;102221.34;4929851;29;20060;-81
2022/05/19 06:53:56;;;;;;;6.72;2.85;;;;;;;22.43;45.02;102249.50;4927138;29;20099;-81
2022/05/19 06:56:23;;;;;;;11.50;3.80;;;;;;;22.97;44.66;102323.56;4928323;29;20051;-81
2022/05/19 06:58:50;;;;;;;10.27;3.28;;;;;;;22.96;44.61;102323.72;4929071;29;20472;-80
2022/05/19 07:01:18;;;;;;;4.65;3.17;;;;;;;22.80;44.55;102306.56;4927702;29;20111;-81
2022/05/19 07:03:45;;;;;;;5.07;3.90;;;;;;;22.74;44.77;102298.28;4929882;29;20561;-82
2022/05/19 07:06:12;;;;;;;7.53;3.55;;;;;;;23.00;44.63;102330.53;4929871;29;20087;-80
2022/05/19 07:08:41;;;;;;;7.15;2.78;;;;;;;23.05;44.82;102328.13;4929954;29;20062;-80
2022/05/19 07:11:24;;;;;;;9.38;3.35;;;;;;;23.17;44.74;102315.03;4928355;29;20062;-80
2022/05/19 07:13:56;;;;;;;7.45;3.13;;;;;;;23.29;44.14;102334.44;4929383;29;20051;-80
2022/05/19 07:16:23;;;;;;;10.68;3.17;;;;;;;23.12;44.36;102304.72;4928566;29;20478;-81
2022/05/19 07:18:50;;;;;;;9.93;3.00;;;;;;;23.33;44.14;102319.53;4935511;29;20553;-81
2022/05/19 07:21:20;;;;;;;6.65;2.97;;;;;;;23.39;44.17;102335.03;4930806;29;20115;-81
2022/05/19 07:23:47;;;;;;;5.22;3.22;;;;;;;23.47;44.06;102326.84;4928508;29;20060;-80
2022/05/19 07:26:14;;;;;;;6.40;2.92;;;;;;;22.76;44.23;102204.19;4928817;29;20086;-82
2022/05/19 07:28:40;;;;;;;5.20;3.13;;;;;;;23.59;44.30;102329.97;4929353;29;20047;-82
2022/05/19 07:31:07;;;;;;;6.18;2.75;;;;;;;23.56;43.79;102309.50;4929306;29;20063;-81
2022/05/19 07:33:36;;;;;;;3.10;2.80;;;;;;;23.71;43.22;102325.00;4928390;29;20142;-82
2022/05/19 07:36:06;;;;;;;7.68;2.72;;;;;;;23.79;43.32;102333.09;4929024;29;20052;-80
2022/05/19 07:38:34;;;;;;;6.68;2.83;;;;;;;23.54;42.98;102303.41;4929034;29;20102;-81
2022/05/19 07:41:03;;;;;;;6.68;3.40;;;;;;;23.77;42.31;102335.16;4928680;29;20059;-80
2022/05/19 07:43:36;;;;;;;7.43;2.85;;;;;;;23.35;42.43;102279.50;4925708;29;20060;-81
2022/05/19 07:46:11;;;;;;;3.67;2.50;;;;;;;23.64;42.14;102306.75;4926316;29;20052;-80
2022/05/19 07:48:39;;;;;;;4.40;2.58;;;;;;;23.60;41.82;102310.84;4926657;29;20502;-80
2022/05/19 07:51:06;;;;;;;8.73;2.95;;;;;;;23.51;41.80;102284.81;4925912;29;20063;-80
2022/05/19 07:53:33;;;;;;;5.72;2.60;;;;;;;23.31;41.64;102245.69;4924759;29;20071;-80
2022/05/19 07:56:00;;;;;;;5.15;2.72;;;;;;;23.31;41.28;102224.00;4930165;29;20060;-81
2022/05/19 07:58:26;;;;;;;5.28;2.63;;;;;;;23.86;40.61;102320.47;4929990;29;20722;-81
2022/05/19 08:01:09;;;;;;;;;;;;;;;;;;;;;
2022/05/19 08:03:39;;;;;;;7.63;2.72;;;;;;;24.16;41.24;102331.41;4967513;28;20062;-78
2022/05/19 08:06:09;;;;;;;5.40;2.15;;;;;;;23.51;41.00;102194.53;4967787;28;20085;-79
2022/05/19 08:08:38;;;;;;;12.63;2.90;;;;;;;23.60;40.48;102198.88;4952025;28;20074;-79
2022/05/19 08:11:07;;;;;;;6.13;2.67;;;;;;;24.02;40.07;102267.97;4951781;28;20047;-81
2022/05/19 08:16:27;;;;;;;4.82;2.63;;;;;;;24.02;39.44;102232.69;4968554;28;20530;-80
2022/05/19 08:18:56;;;;;;;3.92;2.60;;;;;;;24.18;39.71;102256.94;4968515;28;20473;-79
2022/05/19 08:21:25;;;;;;;3.08;2.42;;;;;;;24.63;39.63;102322.94;4951083;28;20061;-79
2022/05/19 08:23:55;;;;;;;2.92;2.40;;;;;;;23.64;39.56;102171.19;4935737;28;20256;-80
2022/05/19 08:26:23;;;;;;;7.72;3.03;;;;;;;24.83;39.94;102344.94;4951429;28;20058;-79
2022/05/19 08:28:54;;;;;;;5.55;2.92;;;;;;;24.90;39.31;102351.31;4951384;28;20046;-79
2022/05/19 08:31:24;;;;;;;5.20;2.83;;;;;;;25.01;39.35;102339.09;4968194;28;20097;-81
2022/05/19 08:33:58;;;;;;;2.53;2.33;;;;;;;24.91;38.07;102304.09;4950641;28;20051;-81
2022/05/19 08:36:27;;;;;;;6.35;3.17;;;;;;;25.21;38.06;102342.09;4950892;28;20089;-80
2022/05/19 08:38:53;;;;;;;3.42;3.05;;;;;;;25.24;37.96;102332.72;4950856;28;20106;-81
2022/05/19 08:41:38;;;;;;;6.30;2.38;;;;;;;25.29;38.21;102339.28;4966896;28;20059;-81
2022/05/19 08:44:18;;;;;;;4.38;2.70;;;;;;;25.33;38.42;102340.53;4947655;29;20106;-80
2022/05/19 08:46:48;;;;;;;6.72;2.60;;;;;;;25.47;39.13;102332.56;4947394;28;20067;-80
2022/05/19 08:49:20;;;;;;;5.65;2.63;;;;;;;25.10;37.76;102255.63;4931747;29;20062;-81
2022/05/19 08:52:00;;;;;;;3.65;2.58;;;;;;;25.34;37.12;102281.59;4948328;28;20054;-81
2022/05/19 08:54:27;;;;;;;9.48;2.95;;;;;;;25.72;37.52;102327.56;4951201;28;20480;-81
2022/05/19 08:57:04;;;;;;;6.38;2.70;;;;;;;25.91;36.45;102339.69;4967575;28;20063;-81
2022/05/19 09:00:06;;;;;;;3.45;2.35;;;;;;;25.94;37.02;102339.28;4967775;28;20054;-79
2022/05/19 09:02:45;;;;;;;9.30;2.47;;;;;;;25.98;36.37;102329.69;4921472;28;20117;-80
2022/05/19 09:05:30;;;;;;;3.42;2.28;;;;;;;26.31;36.91;102339.97;4950231;28;20054;-81
2022/05/19 09:08:34;;;;;;;4.07;2.70;;;;;;;26.27;37.02;102344.16;4967320;28;20061;-81
2022/05/19 09:11:12;;;;;;;4.70;2.78;;;;;;;26.16;36.85;102329.19;4948226;28;20134;-79
2022/05/19 09:13:51;;;;;;;3.00;2.33;;;;;;;26.30;36.95;102341.03;4949821;28;20061;-80
2022/05/19 09:16:36;;;;;;;4.05;2.72;;;;;;;26.19;37.22;102312.47;4949853;28;20054;-81
2022/05/19 09:19:14;;;;;;;3.08;2.75;;;;;;;26.32;36.64;102328.06;4966877;28;20047;-80
2022/05/19 09:21:43;;;;;;;6.25;3.53;;;;;;;25.18;37.33;102141.38;4950454;28;20485;-81
2022/05/19 09:24:12;;;;;;;4.07;2.28;;;;;;;26.03;37.48;102280.97;4950142;28;20054;-80
2022/05/19 09:26:56;;;;;;;6.75;2.97;;;;;;;26.45;37.84;102333.56;4966692;28;20485;-80
2022/05/19 09:29:28;;;;;;;8.82;3.30;;;;;;;26.47;37.77;102334.22;4949223;28;20078;-81
2022/05/19 09:32:29;;;;;;;7.15;2.78;;;;;;;26.52;37.60;102323.56;4949186;28;20047;-80
2022/05/19 09:35:05;;;;;;;7.13;2.88;;;;;;;26.16;36.36;102255.72;4948152;28;20039;-81
2022/05/19 09:37:45;;;;;;;3.10;2.45;;;;;;;26.47;35.94;102298.81;4948529;28;20340;-81
2022/05/19 09:40:11;;;;;;;7.25;2.60;;;;;;;26.63;35.57;102316.75;4946745;28;20505;-81
2022/05/19 09:43:04;;;;;;;6.03;2.72;;;;;;;26.72;35.87;102331.88;4949424;28;20149;-81
2022/05/19 09:45:43;;;;;;;6.10;3.17;;;;;;;26.60;33.97;102270.84;4946585;28;20154;-81
2022/05/19 09:48:11;;;;;;;7.90;2.80;;;;;;;26.99;34.82;102323.81;4962707;28;20427;-81
2022/05/19 09:50:44;;;;;;;7.10;2.40;;;;;;;26.81;34.65;102269.88;4964822;28;20050;-81
2022/05/19 09:53:35;;;;;;;3.88;2.63;;;;;;;27.07;35.10;102315.47;4964768;28;20055;-81
2022/05/19 09:56:12;;;;;;;;;;;;;;;27.22;34.88;102328.97;4949176;28;20374;-81
2022/05/19 09:58:44;;;;;;;7.55;2.67;;;;;;;26.98;35.95;102317.53;4948681;28;20380;-80
2022/05/19 10:01:37;;;;;;;4.07;2.40;;;;;;;27.40;33.43;102329.19;4965326;28;20058;-81
2022/05/19 10:04:14;;;;;;;4.32;2.75;;;;;;;27.50;32.89;102328.78;4947038;28;20062;-80
2022/05/19 10:07:07;;;;;;;4.50;2.38;;;;;;;27.52;33.59;102318.50;4959886;28;20055;-81
2022/05/19 10:09:43;;;;;;;3.30;2.65;;;;;;;27.80;32.61;102318.34;4962839;28;20047;-81
2022/05/19 10:12:14;;;;;;;4.35;3.05;;;;;;;27.86;33.23;102317.50;4941779;28;20059;-81
2022/05/19 10:14:51;;;;;;;9.55;2.72;;;;;;;27.10;34.03;102169.75;4941859;28;20047;-83
2022/05/19 10:17:39;;;;;;;3.80;2.17;;;;;;;27.71;32.51;102235.00;4943384;28;20074;-81
2022/05/19 10:20:27;;;;;;;7.03;2.90;;;;;;;27.59;32.71;102204.78;4959459;28;20110;-82
2022/05/19 10:23:21;;;;;;;8.07;2.47;;;;;;;28.30;33.57;102310.56;4945755;28;20078;-81
2022/05/19 10:26:28;;;;;;;3.50;2.75;;;;;;;28.44;33.39;102310.50;4942499;28;20633;-79
2022/05/19 10:32:01;;;;;;;7.80;2.78;;;;;;;28.15;33.34;102258.06;4962405;28;20075;-82
2022/05/19 10:34:58;;;;;;;9.38;2.90;;;;;;;28.55;32.82;102307.97;4944176;28;20054;-81
2022/05/19 10:37:38;;;;;;;3.85;2.63;;;;;;;28.72;32.83;102291.94;4967930;28;20518;-80
2022/05/19 10:40:34;;;;;;;3.10;2.50;;;;;;;29.03;33.58;102293.06;4948213;28;20418;-81
2022/05/19 10:43:13;;;;;;;4.38;3.25;;;;;;;29.44;33.36;102283.56;4931176;28;20050;-82
2022/05/19 10:45:46;;;;;;;14.23;3.10;;;;;;;29.63;32.63;102297.31;4967238;28;20042;-81
2022/05/19 10:48:38;;;;;;;8.48;2.67;;;;;;;29.48;32.38;102290.28;4969021;28;20058;-81
2022/05/19 10:51:14;;;;;;;3.05;2.33;;;;;;;29.51;32.67;102276.13;4966898;28;20046;-80
2022/05/19 10:53:50;;;;;;;3.03;2.72;;;;;;;29.67;31.87;102249.31;4951304;28;20054;-81
2022/05/19 10:56:26;;;;;;;5.93;2.30;;;;;;;29.85;32.02;102281.38;4951331;28;20050;-81
2022/05/19 10:59:27;;;;;;;7.05;2.42;;;;;;;30.01;31.70;102299.97;4969108;28;20065;-81
2022/05/19 11:02:15;;;;;;;4.40;2.53;;;;;;;30.09;30.92;102290.59;4951260;28;20215;-81
2022/05/19 11:04:49;;;;;;;6.50;2.85;;;;;;;29.72;31.13;102208.44;4949040;28;20501;-82
2022/05/19 11:07:49;;;;;;;5.80;2.47;;;;;;;30.20;31.69;102274.28;4949301;28;20114;-82
2022/05/19 11:10:40;;;;;;;3.83;2.38;;;;;;;30.21;32.14;102272.34;4950435;28;20146;-81
2022/05/19 11:13:26;;;;;;;4.80;2.45;;;;;;;30.39;32.03;102264.19;4950889;28;20042;-81
2022/05/19 11:16:15;;;;;;;5.40;2.78;;;;;;;30.51;31.79;102255.19;4950593;28;20078;-82
2022/05/19 11:19:03;;;;;;;8.07;2.97;;;;;;;29.68;31.79;102130.56;4950916;28;20492;-83
2022/05/19 11:22:05;;;;;;;12.80;2.70;;;;;;;30.53;32.22;102266.75;4949808;28;20059;-82
2022/05/19 11:26:23;;;;;;;9.80;3.33;;;;;;;30.74;31.87;102266.28;4936490;28;20504;-82
2022/05/19 11:27:34;;;;;;;7.47;2.90;;;;;;;30.69;32.32;102263.38;4966401;28;20055;-81
2022/05/19 11:30:10;;;;;;;5.40;2.97;;;;;;;30.75;32.67;102247.91;4935612;29;20051;-82
2022/05/19 11:32:38;;;;;;;6.60;3.33;;;;;;;30.80;32.39;102245.31;4930598;29;20377;-82
2022/05/19 11:35:22;;;;;;;4.07;2.38;;;;;;;30.85;31.36;102251.81;4965571;28;20353;-82
2022/05/19 11:37:59;;;;;;;4.88;2.75;;;;;;;30.84;32.04;102247.38;4968107;28;20054;-82
2022/05/19 11:40:46;;;;;;;6.65;2.70;;;;;;;30.93;31.68;102241.59;4950031;28;20055;-82
2022/05/19 11:43:29;;;;;;;7.28;3.08;;;;;;;30.71;31.90;102184.50;4967808;28;20105;-83
2022/05/19 11:46:25;;;;;;;4.53;3.15;;;;;;;31.35;31.38;102250.63;4966306;28;20058;-83
2022/05/19 11:55:20;;;;;;;6.90;2.85;;;;;;;31.42;31.38;102217.63;4958801;28;20054;-82
2022/05/19 11:58:04;;;;;;;9.02;2.75;;;;;;;31.67;31.28;102231.94;4942680;28;20043;-81
2022/05/19 12:00:38;;;;;;;3.63;2.47;;;;;;;31.76;30.75;102237.09;4942161;28;20110;-80
2022/05/19 12:03:18;;;;;;;7.25;2.90;;;;;;;31.86;30.87;102207.94;4941139;28;20078;-82
2022/05/19 12:06:03;;;;;;;9.10;2.67;;;;;;;32.05;30.68;102227.91;4939702;28;20050;-83
2022/05/19 12:08:35;;;;;;;4.35;2.50;;;;;;;32.27;30.64;102222.59;4938184;28;20467;-83